sensor_id;sensor_type;location;lat;lon;timestamp;P1;durP1;ratioP1;P2;durP2;ratioP2
1128;SDS011;553;51.038;7.216;2023-04-12T00:01:56;7.80;;;2.10;;
1128;SDS011;553;51.038;7.216;2023-04-12T00:04:23;9.03;;;2.53;;
1128;SDS011;553;51.038;7.216;2023-04-12T00:06:52;5.90;;;2.00;;
1128;SDS011;553;51.038;7.216;2023-04-12T00:09:19;8.63;;;1.80;;
1128;SDS011;553;51.038;7.216;2023-04-12T00:11:46;10.10;;;2.10;;
1128;SDS011;553;51.038;7.216;2023-04-12T00:14:12;3.70;;;2.00;;
1128;SDS011;553;51.038;7.216;2023-04-12T00:16:39;11.70;;;2.10;;
1128;SDS011;553;51.038;7.216;2023-04-12T00:19:06;5.20;;;2.27;;
1128;SDS011;553;51.038;7.216;2023-04-12T00:21:33;4.90;;;1.80;;
1128;SDS011;553;51.038;7.216;2023-04-12T00:24:00;6.57;;;1.80;;
1128;SDS011;553;51.038;7.216;2023-04-12T00:26:27;4.50;;;1.90;;
1128;SDS011;553;51.038;7.216;2023-04-12T00:28:54;6.60;;;2.23;;
1128;SDS011;553;51.038;7.216;2023-04-12T00:31:21;9.57;;;2.60;;
1128;SDS011;553;51.038;7.216;2023-04-12T00:33:49;7.07;;;2.00;;
1128;SDS011;553;51.038;7.216;2023-04-12T00:36:15;12.17;;;2.07;;
1128;SDS011;553;51.038;7.216;2023-04-12T00:38:42;4.87;;;1.70;;
1128;SDS011;553;51.038;7.216;2023-04-12T00:41:11;6.90;;;2.07;;
1128;SDS011;553;51.038;7.216;2023-04-12T00:43:40;6.30;;;1.93;;
1128;SDS011;553;51.038;7.216;2023-04-12T00:46:07;5.70;;;2.00;;
1128;SDS011;553;51.038;7.216;2023-04-12T00:48:35;5.43;;;2.20;;
1128;SDS011;553;51.038;7.216;2023-04-12T00:51:02;4.70;;;2.00;;
1128;SDS011;553;51.038;7.216;2023-04-12T00:53:32;7.33;;;1.90;;
1128;SDS011;553;51.038;7.216;2023-04-12T00:55:59;7.37;;;2.60;;
1128;SDS011;553;51.038;7.216;2023-04-12T00:58:26;9.37;;;2.47;;
1128;SDS011;553;51.038;7.216;2023-04-12T01:00:53;9.00;;;2.00;;
1128;SDS011;553;51.038;7.216;2023-04-12T01:03:21;8.17;;;2.13;;
1128;SDS011;553;51.038;7.216;2023-04-12T01:05:52;7.47;;;1.83;;
1128;SDS011;553;51.038;7.216;2023-04-12T01:16:48;9.70;;;2.30;;
1128;SDS011;553;51.038;7.216;2023-04-12T01:19:34;7.83;;;2.60;;
1128;SDS011;553;51.038;7.216;2023-04-12T01:22:28;7.33;;;2.90;;
1128;SDS011;553;51.038;7.216;2023-04-12T01:28:14;11.23;;;2.23;;
1128;SDS011;553;51.038;7.216;2023-04-12T01:30:45;11.30;;;2.87;;
1128;SDS011;553;51.038;7.216;2023-04-12T01:33:15;4.03;;;1.60;;
1128;SDS011;553;51.038;7.216;2023-04-12T01:35:43;7.07;;;2.20;;
1128;SDS011;553;51.038;7.216;2023-04-12T01:38:11;6.30;;;2.10;;
1128;SDS011;553;51.038;7.216;2023-04-12T01:40:38;8.10;;;2.17;;
1128;SDS011;553;51.038;7.216;2023-04-12T01:43:11;6.07;;;1.73;;
1128;SDS011;553;51.038;7.216;2023-04-12T01:45:39;15.90;;;3.20;;
1128;SDS011;553;51.038;7.216;2023-04-12T01:48:06;4.47;;;1.83;;
1128;SDS011;553;51.038;7.216;2023-04-12T01:53:27;6.13;;;1.93;;
1128;SDS011;553;51.038;7.216;2023-04-12T01:56:07;10.23;;;2.30;;
1128;SDS011;553;51.038;7.216;2023-04-12T01:58:36;8.23;;;2.30;;
1128;SDS011;553;51.038;7.216;2023-04-12T02:01:05;7.87;;;2.53;;
1128;SDS011;553;51.038;7.216;2023-04-12T02:03:36;8.87;;;2.27;;
1128;SDS011;553;51.038;7.216;2023-04-12T02:06:08;5.80;;;2.50;;
1128;SDS011;553;51.038;7.216;2023-04-12T02:08:35;5.00;;;2.43;;
1128;SDS011;553;51.038;7.216;2023-04-12T02:11:12;9.17;;;3.07;;
1128;SDS011;553;51.038;7.216;2023-04-12T02:13:41;8.60;;;2.50;;
1128;SDS011;553;51.038;7.216;2023-04-12T02:16:08;3.97;;;1.47;;
1128;SDS011;553;51.038;7.216;2023-04-12T02:18:36;3.67;;;1.70;;
1128;SDS011;553;51.038;7.216;2023-04-12T02:21:06;9.90;;;1.87;;
1128;SDS011;553;51.038;7.216;2023-04-12T02:23:33;6.50;;;2.40;;
1128;SDS011;553;51.038;7.216;2023-04-12T02:26:00;4.97;;;2.00;;
1128;SDS011;553;51.038;7.216;2023-04-12T02:28:27;8.10;;;2.30;;
1128;SDS011;553;51.038;7.216;2023-04-12T02:30:54;4.83;;;1.90;;
1128;SDS011;553;51.038;7.216;2023-04-12T02:33:22;3.57;;;1.80;;
1128;SDS011;553;51.038;7.216;2023-04-12T02:35:55;6.83;;;1.60;;
1128;SDS011;553;51.038;7.216;2023-04-12T02:38:28;4.63;;;2.10;;
1128;SDS011;553;51.038;7.216;2023-04-12T02:40:58;4.70;;;2.17;;
1128;SDS011;553;51.038;7.216;2023-04-12T02:43:24;7.23;;;2.47;;
1128;SDS011;553;51.038;7.216;2023-04-12T02:45:58;5.50;;;1.80;;
1128;SDS011;553;51.038;7.216;2023-04-12T02:48:25;8.90;;;2.17;;
1128;SDS011;553;51.038;7.216;2023-04-12T02:50:52;7.37;;;1.97;;
1128;SDS011;553;51.038;7.216;2023-04-12T02:53:21;10.20;;;2.33;;
1128;SDS011;553;51.038;7.216;2023-04-12T02:56:08;8.93;;;2.00;;
1128;SDS011;553;51.038;7.216;2023-04-12T02:58:35;6.73;;;2.00;;
1128;SDS011;553;51.038;7.216;2023-04-12T03:01:03;6.87;;;1.83;;
1128;SDS011;553;51.038;7.216;2023-04-12T03:03:47;11.20;;;2.30;;
1128;SDS011;553;51.038;7.216;2023-04-12T03:06:33;3.87;;;1.90;;
1128;SDS011;553;51.038;7.216;2023-04-12T03:09:00;15.13;;;2.20;;
1128;SDS011;553;51.038;7.216;2023-04-12T03:11:27;7.23;;;2.27;;
1128;SDS011;553;51.038;7.216;2023-04-12T03:13:55;7.73;;;1.50;;
1128;SDS011;553;51.038;7.216;2023-04-12T03:16:23;4.83;;;2.00;;
1128;SDS011;553;51.038;7.216;2023-04-12T03:19:03;4.17;;;2.10;;
1128;SDS011;553;51.038;7.216;2023-04-12T03:21:31;5.73;;;2.20;;
1128;SDS011;553;51.038;7.216;2023-04-12T03:24:00;5.43;;;2.40;;
1128;SDS011;553;51.038;7.216;2023-04-12T03:26:28;4.23;;;2.10;;
1128;SDS011;553;51.038;7.216;2023-04-12T03:28:59;5.87;;;1.97;;
1128;SDS011;553;51.038;7.216;2023-04-12T03:31:32;3.93;;;1.80;;
1128;SDS011;553;51.038;7.216;2023-04-12T03:34:04;6.77;;;2.80;;
1128;SDS011;553;51.038;7.216;2023-04-12T03:36:31;4.50;;;1.80;;
1128;SDS011;553;51.038;7.216;2023-04-12T03:39:09;9.10;;;2.50;;
1128;SDS011;553;51.038;7.216;2023-04-12T03:41:37;5.60;;;1.77;;
1128;SDS011;553;51.038;7.216;2023-04-12T03:44:03;4.70;;;2.23;;
1128;SDS011;553;51.038;7.216;2023-04-12T03:46:32;6.87;;;2.40;;
1128;SDS011;553;51.038;7.216;2023-04-12T03:49:04;4.33;;;2.63;;
1128;SDS011;553;51.038;7.216;2023-04-12T03:51:32;9.33;;;2.90;;
1128;SDS011;553;51.038;7.216;2023-04-12T03:54:02;12.60;;;3.30;;
1128;SDS011;553;51.038;7.216;2023-04-12T03:56:38;5.93;;;2.30;;
1128;SDS011;553;51.038;7.216;2023-04-12T03:59:10;5.10;;;2.77;;
1128;SDS011;553;51.038;7.216;2023-04-12T04:01:40;6.57;;;2.70;;
1128;SDS011;553;51.038;7.216;2023-04-12T04:04:08;4.33;;;2.83;;
1128;SDS011;553;51.038;7.216;2023-04-12T04:06:35;5.63;;;2.40;;
1128;SDS011;553;51.038;7.216;2023-04-12T04:09:02;6.73;;;3.73;;
1128;SDS011;553;51.038;7.216;2023-04-12T04:11:32;6.63;;;3.03;;
1128;SDS011;553;51.038;7.216;2023-04-12T04:14:04;7.60;;;3.17;;
1128;SDS011;553;51.038;7.216;2023-04-12T04:16:31;6.40;;;3.10;;
1128;SDS011;553;51.038;7.216;2023-04-12T04:19:00;5.80;;;2.67;;
1128;SDS011;553;51.038;7.216;2023-04-12T04:21:26;6.50;;;2.67;;
1128;SDS011;553;51.038;7.216;2023-04-12T04:24:00;8.13;;;3.00;;
1128;SDS011;553;51.038;7.216;2023-04-12T04:26:31;4.20;;;2.60;;
1128;SDS011;553;51.038;7.216;2023-04-12T04:29:28;5.17;;;2.30;;
1128;SDS011;553;51.038;7.216;2023-04-12T04:31:56;7.20;;;2.70;;
1128;SDS011;553;51.038;7.216;2023-04-12T04:34:24;7.03;;;2.77;;
1128;SDS011;553;51.038;7.216;2023-04-12T04:36:58;5.87;;;2.90;;
1128;SDS011;553;51.038;7.216;2023-04-12T04:39:26;7.93;;;2.90;;
1128;SDS011;553;51.038;7.216;2023-04-12T04:41:55;4.20;;;2.57;;
1128;SDS011;553;51.038;7.216;2023-04-12T04:44:31;6.20;;;2.50;;
1128;SDS011;553;51.038;7.216;2023-04-12T04:47:04;6.37;;;2.10;;
1128;SDS011;553;51.038;7.216;2023-04-12T04:49:34;5.90;;;2.77;;
1128;SDS011;553;51.038;7.216;2023-04-12T04:52:10;7.40;;;2.70;;
1128;SDS011;553;51.038;7.216;2023-04-12T04:54:38;4.00;;;2.10;;
1128;SDS011;553;51.038;7.216;2023-04-12T04:57:06;4.80;;;2.77;;
1128;SDS011;553;51.038;7.216;2023-04-12T04:59:38;3.77;;;2.40;;
1128;SDS011;553;51.038;7.216;2023-04-12T05:02:13;5.40;;;2.23;;
1128;SDS011;553;51.038;7.216;2023-04-12T05:04:42;9.60;;;2.40;;
1128;SDS011;553;51.038;7.216;2023-04-12T05:07:12;4.80;;;2.77;;
1128;SDS011;553;51.038;7.216;2023-04-12T05:09:42;4.30;;;2.20;;
1128;SDS011;553;51.038;7.216;2023-04-12T05:12:09;10.80;;;2.27;;
1128;SDS011;553;51.038;7.216;2023-04-12T05:14:36;3.70;;;2.43;;
1128;SDS011;553;51.038;7.216;2023-04-12T05:17:15;2.40;;;2.17;;
1128;SDS011;553;51.038;7.216;2023-04-12T05:19:42;4.50;;;1.87;;
1128;SDS011;553;51.038;7.216;2023-04-12T05:22:10;7.50;;;2.47;;
1128;SDS011;553;51.038;7.216;2023-04-12T05:24:38;3.50;;;2.17;;
1128;SDS011;553;51.038;7.216;2023-04-12T05:27:06;2.60;;;1.90;;
1128;SDS011;553;51.038;7.216;2023-04-12T05:29:32;3.20;;;2.10;;
1128;SDS011;553;51.038;7.216;2023-04-12T05:31:59;3.00;;;2.07;;
1128;SDS011;553;51.038;7.216;2023-04-12T05:34:26;4.70;;;2.40;;
1128;SDS011;553;51.038;7.216;2023-04-12T05:36:54;5.63;;;2.53;;
1128;SDS011;553;51.038;7.216;2023-04-12T05:39:22;4.17;;;2.03;;
1128;SDS011;553;51.038;7.216;2023-04-12T05:41:50;3.73;;;2.00;;
1128;SDS011;553;51.038;7.216;2023-04-12T05:44:17;3.10;;;1.83;;
1128;SDS011;553;51.038;7.216;2023-04-12T05:46:45;3.43;;;1.60;;
1128;SDS011;553;51.038;7.216;2023-04-12T05:49:12;4.40;;;2.07;;
1128;SDS011;553;51.038;7.216;2023-04-12T05:51:38;5.50;;;2.40;;
1128;SDS011;553;51.038;7.216;2023-04-12T05:54:15;3.73;;;2.47;;
1128;SDS011;553;51.038;7.216;2023-04-12T05:56:47;6.10;;;1.80;;
1128;SDS011;553;51.038;7.216;2023-04-12T05:59:13;3.83;;;2.17;;
1128;SDS011;553;51.038;7.216;2023-04-12T06:01:41;5.00;;;2.30;;
1128;SDS011;553;51.038;7.216;2023-04-12T06:04:09;4.67;;;2.60;;
1128;SDS011;553;51.038;7.216;2023-04-12T06:06:37;3.37;;;2.40;;
1128;SDS011;553;51.038;7.216;2023-04-12T06:09:03;6.33;;;2.13;;
1128;SDS011;553;51.038;7.216;2023-04-12T06:11:30;3.83;;;2.43;;
1128;SDS011;553;51.038;7.216;2023-04-12T06:14:01;4.47;;;2.13;;
1128;SDS011;553;51.038;7.216;2023-04-12T06:16:29;4.07;;;1.90;;
1128;SDS011;553;51.038;7.216;2023-04-12T06:18:56;6.40;;;1.93;;
1128;SDS011;553;51.038;7.216;2023-04-12T06:21:25;4.90;;;2.50;;
1128;SDS011;553;51.038;7.216;2023-04-12T06:23:52;7.00;;;2.83;;
1128;SDS011;553;51.038;7.216;2023-04-12T06:26:19;7.70;;;2.23;;
1128;SDS011;553;51.038;7.216;2023-04-12T06:28:46;3.63;;;2.23;;
1128;SDS011;553;51.038;7.216;2023-04-12T06:31:14;4.63;;;2.60;;
1128;SDS011;553;51.038;7.216;2023-04-12T06:33:41;2.80;;;1.80;;
1128;SDS011;553;51.038;7.216;2023-04-12T06:36:09;4.67;;;2.77;;
1128;SDS011;553;51.038;7.216;2023-04-12T06:38:37;3.63;;;1.70;;
1128;SDS011;553;51.038;7.216;2023-04-12T06:41:04;4.50;;;2.60;;
1128;SDS011;553;51.038;7.216;2023-04-12T06:43:31;2.97;;;1.87;;
1128;SDS011;553;51.038;7.216;2023-04-12T06:45:58;3.50;;;1.90;;
1128;SDS011;553;51.038;7.216;2023-04-12T06:48:28;2.07;;;1.60;;
1128;SDS011;553;51.038;7.216;2023-04-12T06:50:55;2.67;;;1.70;;
1128;SDS011;553;51.038;7.216;2023-04-12T06:53:21;3.57;;;1.93;;
1128;SDS011;553;51.038;7.216;2023-04-12T06:55:48;2.63;;;1.73;;
1128;SDS011;553;51.038;7.216;2023-04-12T06:58:15;4.60;;;1.73;;
1128;SDS011;553;51.038;7.216;2023-04-12T07:00:41;3.90;;;2.00;;
1128;SDS011;553;51.038;7.216;2023-04-12T07:03:08;3.83;;;1.80;;
1128;SDS011;553;51.038;7.216;2023-04-12T07:05:37;3.97;;;2.30;;
1128;SDS011;553;51.038;7.216;2023-04-12T07:08:04;4.30;;;1.80;;
1128;SDS011;553;51.038;7.216;2023-04-12T07:10:32;2.93;;;2.00;;
1128;SDS011;553;51.038;7.216;2023-04-12T07:13:01;4.53;;;2.17;;
1128;SDS011;553;51.038;7.216;2023-04-12T07:15:32;5.37;;;1.60;;
1128;SDS011;553;51.038;7.216;2023-04-12T07:17:59;2.40;;;1.87;;
1128;SDS011;553;51.038;7.216;2023-04-12T07:20:25;2.43;;;1.30;;
1128;SDS011;553;51.038;7.216;2023-04-12T07:22:52;2.77;;;1.80;;
1128;SDS011;553;51.038;7.216;2023-04-12T07:25:19;2.63;;;1.87;;
1128;SDS011;553;51.038;7.216;2023-04-12T07:27:45;4.17;;;1.80;;
1128;SDS011;553;51.038;7.216;2023-04-12T07:30:12;2.03;;;1.67;;
1128;SDS011;553;51.038;7.216;2023-04-12T07:32:39;3.20;;;1.17;;
1128;SDS011;553;51.038;7.216;2023-04-12T07:35:05;2.33;;;1.60;;
1128;SDS011;553;51.038;7.216;2023-04-12T07:37:32;2.17;;;1.50;;
1128;SDS011;553;51.038;7.216;2023-04-12T07:40:00;1.73;;;1.37;;
1128;SDS011;553;51.038;7.216;2023-04-12T07:42:27;5.13;;;1.43;;
1128;SDS011;553;51.038;7.216;2023-04-12T07:44:54;2.60;;;2.13;;
1128;SDS011;553;51.038;7.216;2023-04-12T07:47:21;4.00;;;1.40;;
1128;SDS011;553;51.038;7.216;2023-04-12T07:49:47;5.43;;;1.40;;
1128;SDS011;553;51.038;7.216;2023-04-12T07:52:14;3.43;;;1.27;;
1128;SDS011;553;51.038;7.216;2023-04-12T07:54:41;1.90;;;1.40;;
1128;SDS011;553;51.038;7.216;2023-04-12T07:57:08;1.87;;;1.23;;
1128;SDS011;553;51.038;7.216;2023-04-12T07:59:35;2.90;;;1.60;;
1128;SDS011;553;51.038;7.216;2023-04-12T08:02:02;2.43;;;1.20;;
1128;SDS011;553;51.038;7.216;2023-04-12T08:04:31;2.40;;;1.50;;
1128;SDS011;553;51.038;7.216;2023-04-12T08:06:58;3.87;;;1.23;;
1128;SDS011;553;51.038;7.216;2023-04-12T08:09:24;3.40;;;1.53;;
1128;SDS011;553;51.038;7.216;2023-04-12T08:11:51;1.77;;;1.17;;
1128;SDS011;553;51.038;7.216;2023-04-12T08:14:18;1.50;;;1.17;;
1128;SDS011;553;51.038;7.216;2023-04-12T08:16:45;1.10;;;0.90;;
1128;SDS011;553;51.038;7.216;2023-04-12T08:19:12;1.80;;;1.40;;
1128;SDS011;553;51.038;7.216;2023-04-12T08:21:39;2.00;;;1.30;;
1128;SDS011;553;51.038;7.216;2023-04-12T08:24:05;2.60;;;1.17;;
1128;SDS011;553;51.038;7.216;2023-04-12T08:26:33;1.83;;;1.50;;
1128;SDS011;553;51.038;7.216;2023-04-12T08:28:59;2.80;;;1.50;;
1128;SDS011;553;51.038;7.216;2023-04-12T08:31:26;1.73;;;1.33;;
1128;SDS011;553;51.038;7.216;2023-04-12T08:33:53;2.27;;;1.60;;
1128;SDS011;553;51.038;7.216;2023-04-12T08:36:21;1.60;;;1.00;;
1128;SDS011;553;51.038;7.216;2023-04-12T08:38:48;1.60;;;1.23;;
1128;SDS011;553;51.038;7.216;2023-04-12T08:41:17;1.60;;;1.13;;
1128;SDS011;553;51.038;7.216;2023-04-12T08:43:45;1.97;;;1.37;;
1128;SDS011;553;51.038;7.216;2023-04-12T08:46:13;2.30;;;1.40;;
1128;SDS011;553;51.038;7.216;2023-04-12T08:48:44;2.07;;;1.07;;
1128;SDS011;553;51.038;7.216;2023-04-12T08:51:19;2.03;;;1.20;;
1128;SDS011;553;51.038;7.216;2023-04-12T08:53:47;2.83;;;1.60;;
1128;SDS011;553;51.038;7.216;2023-04-12T08:56:14;1.90;;;1.20;;
1128;SDS011;553;51.038;7.216;2023-04-12T08:58:44;3.43;;;1.23;;
1128;SDS011;553;51.038;7.216;2023-04-12T09:01:16;1.47;;;1.37;;
1128;SDS011;553;51.038;7.216;2023-04-12T09:03:44;2.23;;;1.10;;
1128;SDS011;553;51.038;7.216;2023-04-12T09:06:11;1.50;;;1.00;;
1128;SDS011;553;51.038;7.216;2023-04-12T09:08:51;1.03;;;0.80;;
1128;SDS011;553;51.038;7.216;2023-04-12T09:11:23;1.00;;;0.90;;
1128;SDS011;553;51.038;7.216;2023-04-12T09:13:51;2.83;;;1.13;;
1128;SDS011;553;51.038;7.216;2023-04-12T09:16:32;2.37;;;1.33;;
1128;SDS011;553;51.038;7.216;2023-04-12T09:19:03;1.53;;;1.43;;
1128;SDS011;553;51.038;7.216;2023-04-12T09:21:31;2.13;;;1.50;;
1128;SDS011;553;51.038;7.216;2023-04-12T09:24:03;3.47;;;1.50;;
1128;SDS011;553;51.038;7.216;2023-04-12T09:26:40;2.60;;;2.10;;
1128;SDS011;553;51.038;7.216;2023-04-12T09:29:20;1.50;;;1.40;;
1128;SDS011;553;51.038;7.216;2023-04-12T09:31:54;2.53;;;1.43;;
1128;SDS011;553;51.038;7.216;2023-04-12T09:34:38;1.50;;;1.40;;
1128;SDS011;553;51.038;7.216;2023-04-12T09:37:21;1.57;;;1.30;;
1128;SDS011;553;51.038;7.216;2023-04-12T09:39:54;1.93;;;1.47;;
1128;SDS011;553;51.038;7.216;2023-04-12T09:42:29;2.73;;;1.40;;
1128;SDS011;553;51.038;7.216;2023-04-12T09:45:00;1.53;;;1.07;;
1128;SDS011;553;51.038;7.216;2023-04-12T09:47:44;1.90;;;1.00;;
1128;SDS011;553;51.038;7.216;2023-04-12T09:50:19;1.80;;;1.00;;
1128;SDS011;553;51.038;7.216;2023-04-12T09:52:47;1.20;;;1.10;;
1128;SDS011;553;51.038;7.216;2023-04-12T09:55:15;2.67;;;1.27;;
1128;SDS011;553;51.038;7.216;2023-04-12T09:57:43;2.00;;;1.40;;
1128;SDS011;553;51.038;7.216;2023-04-12T10:00:11;2.07;;;1.70;;
1128;SDS011;553;51.038;7.216;2023-04-12T10:02:44;1.77;;;1.53;;
1128;SDS011;553;51.038;7.216;2023-04-12T10:05:14;2.30;;;1.70;;
1128;SDS011;553;51.038;7.216;2023-04-12T10:07:43;1.67;;;1.57;;
1128;SDS011;553;51.038;7.216;2023-04-12T10:10:11;2.63;;;1.60;;
1128;SDS011;553;51.038;7.216;2023-04-12T10:12:39;1.90;;;1.40;;
1128;SDS011;553;51.038;7.216;2023-04-12T10:15:08;3.33;;;2.37;;
1128;SDS011;553;51.038;7.216;2023-04-12T10:17:42;2.10;;;1.67;;
1128;SDS011;553;51.038;7.216;2023-04-12T10:20:13;2.53;;;1.63;;
1128;SDS011;553;51.038;7.216;2023-04-12T10:22:41;1.53;;;1.43;;
1128;SDS011;553;51.038;7.216;2023-04-12T10:25:10;1.93;;;1.73;;
1128;SDS011;553;51.038;7.216;2023-04-12T10:27:38;3.00;;;2.20;;
1128;SDS011;553;51.038;7.216;2023-04-12T10:30:40;3.60;;;2.10;;
1128;SDS011;553;51.038;7.216;2023-04-12T10:38:13;2.60;;;1.80;;
1128;SDS011;553;51.038;7.216;2023-04-12T10:43:34;3.60;;;2.37;;
1128;SDS011;553;51.038;7.216;2023-04-12T10:46:01;5.00;;;2.77;;
1128;SDS011;553;51.038;7.216;2023-04-12T10:48:35;4.63;;;2.70;;
1128;SDS011;553;51.038;7.216;2023-04-12T10:53:39;3.37;;;1.53;;
1128;SDS011;553;51.038;7.216;2023-04-12T10:58:58;1.47;;;1.30;;
1128;SDS011;553;51.038;7.216;2023-04-12T11:01:38;1.83;;;1.40;;
1128;SDS011;553;51.038;7.216;2023-04-12T11:04:13;1.90;;;1.80;;
1128;SDS011;553;51.038;7.216;2023-04-12T11:06:59;2.37;;;2.00;;
1128;SDS011;553;51.038;7.216;2023-04-12T11:09:38;1.87;;;1.50;;
1128;SDS011;553;51.038;7.216;2023-04-12T11:14:44;3.20;;;2.90;;
1128;SDS011;553;51.038;7.216;2023-04-12T11:19:48;4.93;;;3.27;;
1128;SDS011;553;51.038;7.216;2023-04-12T11:22:24;3.23;;;2.90;;
1128;SDS011;553;51.038;7.216;2023-04-12T11:24:54;2.80;;;1.90;;
1128;SDS011;553;51.038;7.216;2023-04-12T11:27:22;4.00;;;3.60;;
1128;SDS011;553;51.038;7.216;2023-04-12T11:29:51;2.30;;;2.07;;
1128;SDS011;553;51.038;7.216;2023-04-12T11:32:29;2.67;;;2.23;;
1128;SDS011;553;51.038;7.216;2023-04-12T11:34:57;2.20;;;2.00;;
1128;SDS011;553;51.038;7.216;2023-04-12T11:37:27;3.20;;;2.30;;
1128;SDS011;553;51.038;7.216;2023-04-12T11:39:57;2.83;;;1.87;;
1128;SDS011;553;51.038;7.216;2023-04-12T11:42:25;2.27;;;2.00;;
1128;SDS011;553;51.038;7.216;2023-04-12T11:44:53;3.17;;;2.57;;
1128;SDS011;553;51.038;7.216;2023-04-12T11:47:27;3.00;;;2.70;;
1128;SDS011;553;51.038;7.216;2023-04-12T11:49:55;4.87;;;3.53;;
1128;SDS011;553;51.038;7.216;2023-04-12T11:52:26;4.60;;;4.17;;
1128;SDS011;553;51.038;7.216;2023-04-12T11:54:55;4.97;;;4.57;;
1128;SDS011;553;51.038;7.216;2023-04-12T11:57:24;5.97;;;5.37;;
1128;SDS011;553;51.038;7.216;2023-04-12T11:59:51;6.80;;;5.90;;
1128;SDS011;553;51.038;7.216;2023-04-12T12:02:18;6.30;;;5.20;;
1128;SDS011;553;51.038;7.216;2023-04-12T12:04:49;9.13;;;6.80;;
1128;SDS011;553;51.038;7.216;2023-04-12T12:07:17;8.17;;;6.30;;
1128;SDS011;553;51.038;7.216;2023-04-12T12:09:47;8.60;;;6.60;;
1128;SDS011;553;51.038;7.216;2023-04-12T12:12:15;6.87;;;5.57;;
1128;SDS011;553;51.038;7.216;2023-04-12T12:14:42;5.80;;;5.00;;
1128;SDS011;553;51.038;7.216;2023-04-12T12:17:14;8.23;;;5.23;;
1128;SDS011;553;51.038;7.216;2023-04-12T12:19:42;5.20;;;4.70;;
1128;SDS011;553;51.038;7.216;2023-04-12T12:22:16;7.00;;;4.80;;
1128;SDS011;553;51.038;7.216;2023-04-12T12:24:50;6.60;;;4.37;;
1128;SDS011;553;51.038;7.216;2023-04-12T12:27:18;7.40;;;5.40;;
1128;SDS011;553;51.038;7.216;2023-04-12T12:29:47;6.00;;;3.90;;
1128;SDS011;553;51.038;7.216;2023-04-12T12:32:20;5.27;;;3.77;;
1128;SDS011;553;51.038;7.216;2023-04-12T12:34:55;10.60;;;4.47;;
1128;SDS011;553;51.038;7.216;2023-04-12T12:37:23;4.43;;;4.03;;
1128;SDS011;553;51.038;7.216;2023-04-12T12:40:01;4.77;;;3.20;;
1128;SDS011;553;51.038;7.216;2023-04-12T12:42:49;4.93;;;3.77;;
1128;SDS011;553;51.038;7.216;2023-04-12T12:45:17;4.40;;;3.40;;
1128;SDS011;553;51.038;7.216;2023-04-12T12:47:46;5.50;;;3.63;;
1128;SDS011;553;51.038;7.216;2023-04-12T12:50:15;3.63;;;3.00;;
1128;SDS011;553;51.038;7.216;2023-04-12T12:52:44;5.90;;;4.10;;
1128;SDS011;553;51.038;7.216;2023-04-12T12:55:12;8.27;;;4.10;;
1128;SDS011;553;51.038;7.216;2023-04-12T12:57:43;6.33;;;4.40;;
1128;SDS011;553;51.038;7.216;2023-04-12T13:00:31;6.07;;;3.90;;
1128;SDS011;553;51.038;7.216;2023-04-12T13:02:57;8.40;;;4.70;;
1128;SDS011;553;51.038;7.216;2023-04-12T13:05:25;6.40;;;3.20;;
1128;SDS011;553;51.038;7.216;2023-04-12T13:07:51;5.47;;;3.20;;
1128;SDS011;553;51.038;7.216;2023-04-12T13:10:18;5.90;;;2.97;;
1128;SDS011;553;51.038;7.216;2023-04-12T13:12:45;4.07;;;2.60;;
1128;SDS011;553;51.038;7.216;2023-04-12T13:15:12;4.47;;;3.27;;
1128;SDS011;553;51.038;7.216;2023-04-12T13:17:48;5.30;;;3.13;;
1128;SDS011;553;51.038;7.216;2023-04-12T13:20:15;6.30;;;3.80;;
1128;SDS011;553;51.038;7.216;2023-04-12T13:22:42;4.63;;;2.70;;
1128;SDS011;553;51.038;7.216;2023-04-12T13:25:09;6.47;;;2.10;;
1128;SDS011;553;51.038;7.216;2023-04-12T13:27:36;7.33;;;2.70;;
1128;SDS011;553;51.038;7.216;2023-04-12T13:30:03;6.20;;;2.20;;
1128;SDS011;553;51.038;7.216;2023-04-12T13:32:30;9.17;;;2.27;;
1128;SDS011;553;51.038;7.216;2023-04-12T13:34:57;4.07;;;1.80;;
1128;SDS011;553;51.038;7.216;2023-04-12T13:37:24;6.90;;;2.70;;
1128;SDS011;553;51.038;7.216;2023-04-12T13:39:51;3.97;;;2.20;;
1128;SDS011;553;51.038;7.216;2023-04-12T13:42:18;4.00;;;2.37;;
1128;SDS011;553;51.038;7.216;2023-04-12T13:44:45;7.83;;;2.87;;
1128;SDS011;553;51.038;7.216;2023-04-12T13:47:14;3.60;;;2.30;;
1128;SDS011;553;51.038;7.216;2023-04-12T13:49:41;4.40;;;2.33;;
1128;SDS011;553;51.038;7.216;2023-04-12T13:52:07;6.90;;;3.30;;
1128;SDS011;553;51.038;7.216;2023-04-12T13:54:34;6.03;;;2.37;;
1128;SDS011;553;51.038;7.216;2023-04-12T13:57:01;5.77;;;2.57;;
1128;SDS011;553;51.038;7.216;2023-04-12T13:59:29;7.07;;;2.37;;
1128;SDS011;553;51.038;7.216;2023-04-12T14:01:56;8.10;;;2.00;;
1128;SDS011;553;51.038;7.216;2023-04-12T14:04:26;5.90;;;1.70;;
1128;SDS011;553;51.038;7.216;2023-04-12T14:06:53;7.90;;;2.70;;
1128;SDS011;553;51.038;7.216;2023-04-12T14:09:30;8.80;;;2.20;;
1128;SDS011;553;51.038;7.216;2023-04-12T14:11:58;4.80;;;1.93;;
1128;SDS011;553;51.038;7.216;2023-04-12T14:14:26;4.43;;;1.53;;
1128;SDS011;553;51.038;7.216;2023-04-12T14:16:54;6.47;;;1.53;;
1128;SDS011;553;51.038;7.216;2023-04-12T14:19:24;6.67;;;2.37;;
1128;SDS011;553;51.038;7.216;2023-04-12T14:21:50;6.13;;;1.80;;
1128;SDS011;553;51.038;7.216;2023-04-12T14:24:18;5.67;;;1.63;;
1128;SDS011;553;51.038;7.216;2023-04-12T14:26:46;7.07;;;2.03;;
1128;SDS011;553;51.038;7.216;2023-04-12T14:29:15;9.63;;;3.00;;
1128;SDS011;553;51.038;7.216;2023-04-12T14:31:42;9.50;;;1.77;;
1128;SDS011;553;51.038;7.216;2023-04-12T14:34:09;6.27;;;1.90;;
1128;SDS011;553;51.038;7.216;2023-04-12T14:36:36;8.13;;;1.83;;
1128;SDS011;553;51.038;7.216;2023-04-12T14:39:04;6.00;;;1.40;;
1128;SDS011;553;51.038;7.216;2023-04-12T14:41:34;7.47;;;1.60;;
1128;SDS011;553;51.038;7.216;2023-04-12T14:44:01;7.50;;;1.97;;
1128;SDS011;553;51.038;7.216;2023-04-12T14:46:28;13.60;;;1.90;;
1128;SDS011;553;51.038;7.216;2023-04-12T14:48:56;3.97;;;1.87;;
1128;SDS011;553;51.038;7.216;2023-04-12T14:51:26;12.53;;;2.97;;
1128;SDS011;553;51.038;7.216;2023-04-12T14:53:54;7.23;;;1.70;;
1128;SDS011;553;51.038;7.216;2023-04-12T14:56:21;8.30;;;2.60;;
1128;SDS011;553;51.038;7.216;2023-04-12T14:58:54;6.33;;;2.03;;
1128;SDS011;553;51.038;7.216;2023-04-12T15:01:21;9.03;;;2.03;;
1128;SDS011;553;51.038;7.216;2023-04-12T15:03:49;6.77;;;2.07;;
1128;SDS011;553;51.038;7.216;2023-04-12T15:06:17;5.80;;;1.90;;
1128;SDS011;553;51.038;7.216;2023-04-12T15:08:45;8.20;;;2.13;;
1128;SDS011;553;51.038;7.216;2023-04-12T15:11:15;5.03;;;1.43;;
1128;SDS011;553;51.038;7.216;2023-04-12T15:13:44;5.07;;;1.63;;
1128;SDS011;553;51.038;7.216;2023-04-12T15:16:11;3.70;;;1.60;;
1128;SDS011;553;51.038;7.216;2023-04-12T15:18:38;5.17;;;1.93;;
1128;SDS011;553;51.038;7.216;2023-04-12T15:21:07;3.73;;;1.33;;
1128;SDS011;553;51.038;7.216;2023-04-12T15:23:34;10.67;;;1.60;;
1128;SDS011;553;51.038;7.216;2023-04-12T15:26:01;4.70;;;1.60;;
1128;SDS011;553;51.038;7.216;2023-04-12T15:28:29;3.70;;;1.40;;
1128;SDS011;553;51.038;7.216;2023-04-12T15:30:57;3.20;;;1.40;;
1128;SDS011;553;51.038;7.216;2023-04-12T15:33:24;5.03;;;1.83;;
1128;SDS011;553;51.038;7.216;2023-04-12T15:35:52;4.23;;;1.90;;
1128;SDS011;553;51.038;7.216;2023-04-12T15:38:25;6.70;;;1.97;;
1128;SDS011;553;51.038;7.216;2023-04-12T15:40:55;6.23;;;2.30;;
1128;SDS011;553;51.038;7.216;2023-04-12T15:43:24;10.47;;;2.60;;
1128;SDS011;553;51.038;7.216;2023-04-12T15:45:51;7.87;;;2.50;;
1128;SDS011;553;51.038;7.216;2023-04-12T15:48:20;8.00;;;2.20;;
1128;SDS011;553;51.038;7.216;2023-04-12T15:50:48;7.70;;;3.67;;
1128;SDS011;553;51.038;7.216;2023-04-12T15:53:15;7.93;;;4.03;;
1128;SDS011;553;51.038;7.216;2023-04-12T15:55:44;6.53;;;2.93;;
1128;SDS011;553;51.038;7.216;2023-04-12T15:58:12;8.53;;;3.67;;
1128;SDS011;553;51.038;7.216;2023-04-12T16:00:39;7.43;;;2.70;;
1128;SDS011;553;51.038;7.216;2023-04-12T16:03:06;7.67;;;2.47;;
1128;SDS011;553;51.038;7.216;2023-04-12T16:05:33;10.73;;;2.90;;
1128;SDS011;553;51.038;7.216;2023-04-12T16:08:00;7.53;;;3.10;;
1128;SDS011;553;51.038;7.216;2023-04-12T16:10:27;4.93;;;2.60;;
1128;SDS011;553;51.038;7.216;2023-04-12T16:12:55;11.53;;;3.50;;
1128;SDS011;553;51.038;7.216;2023-04-12T16:15:22;9.27;;;3.63;;
1128;SDS011;553;51.038;7.216;2023-04-12T16:17:49;7.60;;;3.43;;